sensor_id;sensor_type;location;lat;lon;timestamp;pressure;altitude;pressure_sealevel;temperature;humidity
71145;BME280;58812;47.698;17.726;2023-06-22T00:01:22;100496.88;;;20.78;91.47
71145;BME280;58812;47.698;17.726;2023-06-22T00:03:48;100495.59;;;20.81;91.39
71145;BME280;58812;47.698;17.726;2023-06-22T00:06:14;100491.81;;;20.62;91.90
71145;BME280;58812;47.698;17.726;2023-06-22T00:08:40;100489.09;;;20.49;94.12
71145;BME280;58812;47.698;17.726;2023-06-22T00:11:05;100485.53;;;20.48;93.51
71145;BME280;58812;47.698;17.726;2023-06-22T00:13:30;100489.53;;;20.52;92.94
71145;BME280;58812;47.698;17.726;2023-06-22T00:15:56;100486.38;;;20.56;93.68
71145;BME280;58812;47.698;17.726;2023-06-22T00:18:21;100488.03;;;20.57;92.77
71145;BME280;58812;47.698;17.726;2023-06-22T00:20:47;100485.09;;;20.51;94.54
71145;BME280;58812;47.698;17.726;2023-06-22T00:23:12;100475.50;;;20.56;93.92
71145;BME280;58812;47.698;17.726;2023-06-22T00:25:40;100470.91;;;20.63;93.46
71145;BME280;58812;47.698;17.726;2023-06-22T00:28:06;100471.72;;;20.63;94.22
71145;BME280;58812;47.698;17.726;2023-06-22T00:30:33;100468.31;;;20.35;96.18
71145;BME280;58812;47.698;17.726;2023-06-22T00:32:59;100466.22;;;20.43;95.07
71145;BME280;58812;47.698;17.726;2023-06-22T00:35:25;100463.78;;;20.55;94.37
71145;BME280;58812;47.698;17.726;2023-06-22T00:37:58;100469.16;;;20.35;95.49
71145;BME280;58812;47.698;17.726;2023-06-22T00:40:29;100463.50;;;20.30;95.51
71145;BME280;58812;47.698;17.726;2023-06-22T00:42:56;100465.38;;;20.36;95.33
71145;BME280;58812;47.698;17.726;2023-06-22T00:45:22;100461.06;;;20.48;94.58
71145;BME280;58812;47.698;17.726;2023-06-22T00:47:52;100466.94;;;20.52;94.75
71145;BME280;58812;47.698;17.726;2023-06-22T00:50:21;100467.97;;;20.58;94.15
71145;BME280;58812;47.698;17.726;2023-06-22T00:52:51;100465.19;;;20.44;94.71
71145;BME280;58812;47.698;17.726;2023-06-22T00:55:18;100480.47;;;20.45;95.15
71145;BME280;58812;47.698;17.726;2023-06-22T00:57:47;100478.22;;;20.49;94.57
71145;BME280;58812;47.698;17.726;2023-06-22T01:00:14;100476.75;;;20.46;95.12
71145;BME280;58812;47.698;17.726;2023-06-22T01:02:41;100466.22;;;20.43;94.98
71145;BME280;58812;47.698;17.726;2023-06-22T01:05:09;100467.53;;;20.47;94.81
71145;BME280;58812;47.698;17.726;2023-06-22T01:07:50;100465.38;;;20.36;95.36
71145;BME280;58812;47.698;17.726;2023-06-22T01:10:50;100449.28;;;20.28;95.83
71145;BME280;58812;47.698;17.726;2023-06-22T01:16:20;100456.56;;;20.21;96.06
71145;BME280;58812;47.698;17.726;2023-06-22T01:18:52;100453.41;;;20.17;96.27
71145;BME280;58812;47.698;17.726;2023-06-22T01:21:19;100464.28;;;20.17;96.76
71145;BME280;58812;47.698;17.726;2023-06-22T01:24:02;100459.91;;;20.16;96.80
71145;BME280;58812;47.698;17.726;2023-06-22T01:26:40;100470.34;;;20.13;96.60
71145;BME280;58812;47.698;17.726;2023-06-22T01:29:08;100466.09;;;20.04;97.25
71145;BME280;58812;47.698;17.726;2023-06-22T01:31:38;100459.59;;;19.91;98.19
71145;BME280;58812;47.698;17.726;2023-06-22T01:34:05;100455.62;;;19.87;98.33
71145;BME280;58812;47.698;17.726;2023-06-22T01:36:32;100459.31;;;19.80;99.02
71145;BME280;58812;47.698;17.726;2023-06-22T01:38:58;100466.59;;;19.72;99.64
71145;BME280;58812;47.698;17.726;2023-06-22T01:41:25;100475.22;;;19.76;99.24
71145;BME280;58812;47.698;17.726;2023-06-22T01:43:52;100479.59;;;19.77;99.58
71145;BME280;58812;47.698;17.726;2023-06-22T01:46:18;100471.44;;;19.77;99.36
71145;BME280;58812;47.698;17.726;2023-06-22T01:48:46;100472.72;;;19.81;99.25
71145;BME280;58812;47.698;17.726;2023-06-22T01:51:11;100471.69;;;19.82;99.38
71145;BME280;58812;47.698;17.726;2023-06-22T01:53:37;100480.22;;;19.79;99.56
71145;BME280;58812;47.698;17.726;2023-06-22T01:56:03;100475.62;;;19.80;99.90
71145;BME280;58812;47.698;17.726;2023-06-22T01:58:30;100472.91;;;19.80;99.72
71145;BME280;58812;47.698;17.726;2023-06-22T02:03:37;100483.50;;;19.68;100.00
71145;BME280;58812;47.698;17.726;2023-06-22T02:06:08;100482.50;;;19.69;100.00
71145;BME280;58812;47.698;17.726;2023-06-22T02:08:41;100477.66;;;19.64;100.00
71145;BME280;58812;47.698;17.726;2023-06-22T02:11:11;100486.41;;;19.60;100.00
71145;BME280;58812;47.698;17.726;2023-06-22T02:13:40;100484.41;;;19.47;100.00
71145;BME280;58812;47.698;17.726;2023-06-22T02:16:10;100485.84;;;19.43;100.00
71145;BME280;58812;47.698;17.726;2023-06-22T02:18:35;100489.56;;;19.35;100.00
71145;BME280;58812;47.698;17.726;2023-06-22T02:21:02;100485.78;;;19.36;100.00
71145;BME280;58812;47.698;17.726;2023-06-22T02:23:28;100486.78;;;19.29;100.00
71145;BME280;58812;47.698;17.726;2023-06-22T02:25:53;100483.88;;;19.30;100.00
71145;BME280;58812;47.698;17.726;2023-06-22T02:28:19;100484.28;;;19.27;100.00
71145;BME280;58812;47.698;17.726;2023-06-22T02:30:44;100485.53;;;19.31;100.00
71145;BME280;58812;47.698;17.726;2023-06-22T02:33:10;100477.41;;;19.31;100.00
71145;BME280;58812;47.698;17.726;2023-06-22T02:35:35;100490.31;;;19.23;100.00
71145;BME280;58812;47.698;17.726;2023-06-22T02:38:02;100486.50;;;19.17;100.00
71145;BME280;58812;47.698;17.726;2023-06-22T02:40:31;100477.78;;;19.21;100.00
71145;BME280;58812;47.698;17.726;2023-06-22T02:42:57;100481.50;;;19.20;100.00
71145;BME280;58812;47.698;17.726;2023-06-22T02:45:26;100488.06;;;19.05;100.00
71145;BME280;58812;47.698;17.726;2023-06-22T02:47:52;100484.47;;;18.98;100.00
71145;BME280;58812;47.698;17.726;2023-06-22T02:50:17;100468.81;;;19.00;100.00
71145;BME280;58812;47.698;17.726;2023-06-22T02:52:43;100467.53;;;18.95;100.00
71145;BME280;58812;47.698;17.726;2023-06-22T02:55:08;100467.94;;;18.92;100.00
71145;BME280;58812;47.698;17.726;2023-06-22T02:57:34;100470.66;;;18.92;100.00
71145;BME280;58812;47.698;17.726;2023-06-22T02:59:59;100467.16;;;18.99;100.00
71145;BME280;58812;47.698;17.726;2023-06-22T03:02:25;100460.94;;;19.05;100.00
71145;BME280;58812;47.698;17.726;2023-06-22T03:04:51;100463.81;;;19.03;100.00
71145;BME280;58812;47.698;17.726;2023-06-22T03:07:19;100476.38;;;19.04;100.00
71145;BME280;58812;47.698;17.726;2023-06-22T03:09:44;100472.84;;;19.04;100.00
71145;BME280;58812;47.698;17.726;2023-06-22T03:12:10;100477.84;;;19.07;100.00
71145;BME280;58812;47.698;17.726;2023-06-22T03:14:36;100482.44;;;19.06;100.00
71145;BME280;58812;47.698;17.726;2023-06-22T03:17:01;100485.16;;;19.06;100.00
71145;BME280;58812;47.698;17.726;2023-06-22T03:19:29;100484.31;;;19.06;100.00
71145;BME280;58812;47.698;17.726;2023-06-22T03:21:57;100496.00;;;19.06;100.00
71145;BME280;58812;47.698;17.726;2023-06-22T03:24:22;100491.41;;;19.07;100.00
71145;BME280;58812;47.698;17.726;2023-06-22T03:26:47;100478.47;;;19.09;100.00
71145;BME280;58812;47.698;17.726;2023-06-22T03:29:13;100484.16;;;19.14;100.00
71145;BME280;58812;47.698;17.726;2023-06-22T03:31:39;100483.12;;;19.15;100.00
71145;BME280;58812;47.698;17.726;2023-06-22T03:34:04;100482.16;;;19.23;100.00
71145;BME280;58812;47.698;17.726;2023-06-22T03:36:30;100500.69;;;19.19;100.00
71145;BME280;58812;47.698;17.726;2023-06-22T03:38:55;100497.34;;;19.17;100.00
71145;BME280;58812;47.698;17.726;2023-06-22T03:41:20;100495.06;;;19.20;100.00
71145;BME280;58812;47.698;17.726;2023-06-22T03:43:46;100502.63;;;19.25;100.00
71145;BME280;58812;47.698;17.726;2023-06-22T03:46:11;100495.34;;;19.32;100.00
71145;BME280;58812;47.698;17.726;2023-06-22T03:48:37;100487.87;;;19.34;100.00
71145;BME280;58812;47.698;17.726;2023-06-22T03:51:03;100490.75;;;19.33;100.00
71145;BME280;58812;47.698;17.726;2023-06-22T03:53:29;100495.03;;;19.42;100.00
71145;BME280;58812;47.698;17.726;2023-06-22T03:55:54;100493.09;;;19.36;100.00
71145;BME280;58812;47.698;17.726;2023-06-22T03:58:21;100495.06;;;19.48;100.00
71145;BME280;58812;47.698;17.726;2023-06-22T04:00:47;100500.41;;;19.63;100.00
71145;BME280;58812;47.698;17.726;2023-06-22T04:03:13;100495.03;;;19.70;100.00
71145;BME280;58812;47.698;17.726;2023-06-22T04:05:39;100503.16;;;19.70;100.00
71145;BME280;58812;47.698;17.726;2023-06-22T04:08:05;100491.09;;;19.79;100.00
71145;BME280;58812;47.698;17.726;2023-06-22T04:10:31;100497.81;;;19.83;100.00
71145;BME280;58812;47.698;17.726;2023-06-22T04:12:56;100496.75;;;19.84;100.00
71145;BME280;58812;47.698;17.726;2023-06-22T04:15:22;100496.53;;;19.86;100.00
71145;BME280;58812;47.698;17.726;2023-06-22T04:17:47;100490.12;;;19.93;100.00
71145;BME280;58812;47.698;17.726;2023-06-22T04:20:13;100489.91;;;19.95;100.00
71145;BME280;58812;47.698;17.726;2023-06-22T04:22:38;100492.84;;;19.93;100.00
71145;BME280;58812;47.698;17.726;2023-06-22T04:25:05;100498.53;;;20.05;100.00
71145;BME280;58812;47.698;17.726;2023-06-22T04:27:32;100497.16;;;20.29;100.00
71145;BME280;58812;47.698;17.726;2023-06-22T04:30:03;100504.53;;;20.42;99.80
71145;BME280;58812;47.698;17.726;2023-06-22T04:32:28;100509.19;;;20.68;99.14
71145;BME280;58812;47.698;17.726;2023-06-22T04:34:54;100514.03;;;20.92;97.72
71145;BME280;58812;47.698;17.726;2023-06-22T04:37:19;100513.03;;;20.93;96.81
71145;BME280;58812;47.698;17.726;2023-06-22T04:39:48;100507.97;;;21.10;96.08
71145;BME280;58812;47.698;17.726;2023-06-22T04:42:14;100507.16;;;21.23;95.43
71145;BME280;58812;47.698;17.726;2023-06-22T04:44:40;100506.53;;;21.34;94.99
71145;BME280;58812;47.698;17.726;2023-06-22T04:47:07;100501.28;;;21.52;94.00
71145;BME280;58812;47.698;17.726;2023-06-22T04:49:34;100508.13;;;21.75;92.89
71145;BME280;58812;47.698;17.726;2023-06-22T04:52:03;100505.53;;;22.06;91.24
71145;BME280;58812;47.698;17.726;2023-06-22T04:54:29;100516.59;;;22.25;90.18
71145;BME280;58812;47.698;17.726;2023-06-22T04:56:54;100512.88;;;22.51;89.06
71145;BME280;58812;47.698;17.726;2023-06-22T04:59:30;100523.66;;;22.71;87.99
71145;BME280;58812;47.698;17.726;2023-06-22T05:01:56;100520.69;;;22.79;86.94
71145;BME280;58812;47.698;17.726;2023-06-22T05:04:22;100519.31;;;23.01;85.96
71145;BME280;58812;47.698;17.726;2023-06-22T05:06:51;100524.13;;;23.24;85.25
71145;BME280;58812;47.698;17.726;2023-06-22T05:09:17;100520.47;;;23.12;85.50
71145;BME280;58812;47.698;17.726;2023-06-22T05:11:43;100527.75;;;23.18;85.04
71145;BME280;58812;47.698;17.726;2023-06-22T05:14:09;100534.50;;;23.40;84.11
71145;BME280;58812;47.698;17.726;2023-06-22T05:16:35;100525.66;;;23.45;83.48
71145;BME280;58812;47.698;17.726;2023-06-22T05:19:01;100531.44;;;23.55;82.98
71145;BME280;58812;47.698;17.726;2023-06-22T05:21:28;100543.03;;;23.94;81.58
71145;BME280;58812;47.698;17.726;2023-06-22T05:23:54;100542.28;;;24.05;80.50
71145;BME280;58812;47.698;17.726;2023-06-22T05:26:21;100541.97;;;23.95;79.85
71145;BME280;58812;47.698;17.726;2023-06-22T05:28:47;100531.66;;;24.15;79.36
71145;BME280;58812;47.698;17.726;2023-06-22T05:31:14;100544.41;;;24.21;78.27
71145;BME280;58812;47.698;17.726;2023-06-22T05:33:41;100546.56;;;24.38;77.16
71145;BME280;58812;47.698;17.726;2023-06-22T05:36:06;100546.03;;;24.59;76.44
71145;BME280;58812;47.698;17.726;2023-06-22T05:38:32;100538.53;;;24.85;75.94
71145;BME280;58812;47.698;17.726;2023-06-22T05:40:57;100549.34;;;24.80;75.89
71145;BME280;58812;47.698;17.726;2023-06-22T05:43:23;100549.16;;;24.63;75.46
71145;BME280;58812;47.698;17.726;2023-06-22T05:45:48;100547.12;;;24.58;75.98
71145;BME280;58812;47.698;17.726;2023-06-22T05:48:13;100544.41;;;24.70;75.76
71145;BME280;58812;47.698;17.726;2023-06-22T05:50:39;100542.94;;;24.86;74.53
71145;BME280;58812;47.698;17.726;2023-06-22T05:53:04;100543.16;;;25.26;73.30
71145;BME280;58812;47.698;17.726;2023-06-22T05:55:32;100556.41;;;25.41;71.83
71145;BME280;58812;47.698;17.726;2023-06-22T05:57:57;100554.50;;;25.53;72.19
71145;BME280;58812;47.698;17.726;2023-06-22T06:00:23;100546.31;;;25.76;71.88
71145;BME280;58812;47.698;17.726;2023-06-22T06:02:49;100554.25;;;25.66;71.75
71145;BME280;58812;47.698;17.726;2023-06-22T06:05:15;100549.41;;;25.92;70.83
71145;BME280;58812;47.698;17.726;2023-06-22T06:07:45;100548.09;;;25.82;71.01
71145;BME280;58812;47.698;17.726;2023-06-22T06:10:11;100548.53;;;26.03;70.47
71145;BME280;58812;47.698;17.726;2023-06-22T06:12:37;100549.91;;;26.41;69.16
71145;BME280;58812;47.698;17.726;2023-06-22T06:15:03;100553.47;;;26.29;68.60
71145;BME280;58812;47.698;17.726;2023-06-22T06:17:29;100553.22;;;26.43;68.30
71145;BME280;58812;47.698;17.726;2023-06-22T06:19:55;100559.75;;;26.53;67.12
71145;BME280;58812;47.698;17.726;2023-06-22T06:22:20;100567.84;;;26.60;67.32
71145;BME280;58812;47.698;17.726;2023-06-22T06:24:47;100571.53;;;26.94;66.09
71145;BME280;58812;47.698;17.726;2023-06-22T06:27:13;100558.03;;;26.93;66.32
71145;BME280;58812;47.698;17.726;2023-06-22T06:29:38;100565.41;;;27.37;65.41
71145;BME280;58812;47.698;17.726;2023-06-22T06:32:04;100564.81;;;27.69;64.15
71145;BME280;58812;47.698;17.726;2023-06-22T06:34:29;100558.47;;;27.68;63.73
71145;BME280;58812;47.698;17.726;2023-06-22T06:36:55;100560.56;;;27.78;63.60
71145;BME280;58812;47.698;17.726;2023-06-22T06:39:20;100565.66;;;27.53;63.88
71145;BME280;58812;47.698;17.726;2023-06-22T06:41:46;100561.22;;;27.85;63.89
71145;BME280;58812;47.698;17.726;2023-06-22T06:44:11;100575.41;;;28.16;63.26
71145;BME280;58812;47.698;17.726;2023-06-22T06:46:36;100570.56;;;28.23;61.59
71145;BME280;58812;47.698;17.726;2023-06-22T06:49:03;100565.09;;;28.28;63.00
71145;BME280;58812;47.698;17.726;2023-06-22T06:51:28;100574.97;;;28.68;58.79
71145;BME280;58812;47.698;17.726;2023-06-22T06:53:54;100567.53;;;28.68;59.30
71145;BME280;58812;47.698;17.726;2023-06-22T06:56:19;100566.66;;;28.90;58.69
71145;BME280;58812;47.698;17.726;2023-06-22T06:58:44;100571.03;;;28.64;58.24
71145;BME280;58812;47.698;17.726;2023-06-22T07:01:13;100565.44;;;28.54;58.58
71145;BME280;58812;47.698;17.726;2023-06-22T07:03:38;100566.72;;;28.24;59.09
71145;BME280;58812;47.698;17.726;2023-06-22T07:06:04;100567.72;;;28.62;58.87
71145;BME280;58812;47.698;17.726;2023-06-22T07:08:30;100560.25;;;28.84;58.20
71145;BME280;58812;47.698;17.726;2023-06-22T07:10:55;100561.50;;;28.98;57.61
71145;BME280;58812;47.698;17.726;2023-06-22T07:13:21;100555.81;;;29.37;57.75
71145;BME280;58812;47.698;17.726;2023-06-22T07:15:46;100551.66;;;29.40;56.77
71145;BME280;58812;47.698;17.726;2023-06-22T07:18:12;100548.41;;;29.43;56.34
71145;BME280;58812;47.698;17.726;2023-06-22T07:20:37;100547.53;;;29.74;55.54
71145;BME280;58812;47.698;17.726;2023-06-22T07:23:04;100539.88;;;29.49;55.48
71145;BME280;58812;47.698;17.726;2023-06-22T07:25:30;100540.00;;;29.65;54.56
71145;BME280;58812;47.698;17.726;2023-06-22T07:28:04;100534.91;;;29.84;53.37
71145;BME280;58812;47.698;17.726;2023-06-22T07:30:31;100542.53;;;30.14;54.31
71145;BME280;58812;47.698;17.726;2023-06-22T07:32:57;100537.94;;;29.87;54.93
71145;BME280;58812;47.698;17.726;2023-06-22T07:35:24;100531.22;;;30.15;53.80
71145;BME280;58812;47.698;17.726;2023-06-22T07:37:49;100539.69;;;30.03;54.81
71145;BME280;58812;47.698;17.726;2023-06-22T07:40:14;100534.09;;;29.93;54.87
71145;BME280;58812;47.698;17.726;2023-06-22T07:42:40;100536.47;;;30.22;54.09
71145;BME280;58812;47.698;17.726;2023-06-22T07:45:06;100546.25;;;30.50;53.06
71145;BME280;58812;47.698;17.726;2023-06-22T07:47:33;100542.19;;;30.88;52.65
71145;BME280;58812;47.698;17.726;2023-06-22T07:50:01;100541.13;;;30.84;52.60
71145;BME280;58812;47.698;17.726;2023-06-22T07:52:27;100540.84;;;31.21;51.48
71145;BME280;58812;47.698;17.726;2023-06-22T07:54:53;100538.91;;;31.42;50.77
71145;BME280;58812;47.698;17.726;2023-06-22T07:57:19;100530.66;;;31.32;50.96
71145;BME280;58812;47.698;17.726;2023-06-22T07:59:45;100529.78;;;31.57;50.77
71145;BME280;58812;47.698;17.726;2023-06-22T08:02:10;100532.22;;;31.74;50.08
71145;BME280;58812;47.698;17.726;2023-06-22T08:04:36;100527.72;;;32.08;49.65
71145;BME280;58812;47.698;17.726;2023-06-22T08:07:01;100529.06;;;32.21;48.52
71145;BME280;58812;47.698;17.726;2023-06-22T08:09:30;100536.19;;;32.37;47.36
71145;BME280;58812;47.698;17.726;2023-06-22T08:11:56;100527.72;;;32.08;47.16
71145;BME280;58812;47.698;17.726;2023-06-22T08:14:26;100530.50;;;32.03;47.33
71145;BME280;58812;47.698;17.726;2023-06-22T08:16:51;100521.09;;;32.04;46.37
71145;BME280;58812;47.698;17.726;2023-06-22T08:19:17;100528.56;;;32.09;46.05
71145;BME280;58812;47.698;17.726;2023-06-22T08:21:43;100526.78;;;32.28;45.51
71145;BME280;58812;47.698;17.726;2023-06-22T08:24:08;100527.75;;;31.98;45.34
71145;BME280;58812;47.698;17.726;2023-06-22T08:26:34;100527.47;;;32.59;44.59
71145;BME280;58812;47.698;17.726;2023-06-22T08:29:04;100527.91;;;32.77;44.50
71145;BME280;58812;47.698;17.726;2023-06-22T08:31:30;100519.06;;;32.75;43.69
71145;BME280;58812;47.698;17.726;2023-06-22T08:33:56;100519.56;;;33.21;43.20
71145;BME280;58812;47.698;17.726;2023-06-22T08:36:21;100522.00;;;33.28;43.09
71145;BME280;58812;47.698;17.726;2023-06-22T08:38:47;100515.13;;;33.78;42.19
71145;BME280;58812;47.698;17.726;2023-06-22T08:41:19;100521.59;;;33.44;42.18
71145;BME280;58812;47.698;17.726;2023-06-22T08:43:44;100519.06;;;33.14;41.98
71145;BME280;58812;47.698;17.726;2023-06-22T08:46:10;100521.25;;;33.51;41.98
71145;BME280;58812;47.698;17.726;2023-06-22T08:48:36;100521.97;;;33.86;40.81
71145;BME280;58812;47.698;17.726;2023-06-22T08:51:01;100519.50;;;33.84;41.32
71145;BME280;58812;47.698;17.726;2023-06-22T08:53:27;100517.28;;;33.28;41.68
71145;BME280;58812;47.698;17.726;2023-06-22T08:55:53;100505.94;;;32.90;42.65
71145;BME280;58812;47.698;17.726;2023-06-22T08:58:18;100514.22;;;33.30;42.45
71145;BME280;58812;47.698;17.726;2023-06-22T09:00:45;100516.25;;;33.77;41.63
71145;BME280;58812;47.698;17.726;2023-06-22T09:03:10;100508.94;;;34.10;40.24
71145;BME280;58812;47.698;17.726;2023-06-22T09:05:37;100500.31;;;34.31;39.78
71145;BME280;58812;47.698;17.726;2023-06-22T09:08:02;100504.63;;;33.99;41.13
71145;BME280;58812;47.698;17.726;2023-06-22T09:10:28;100500.44;;;34.44;40.72
71145;BME280;58812;47.698;17.726;2023-06-22T09:12:53;100502.91;;;34.84;40.03
71145;BME280;58812;47.698;17.726;2023-06-22T09:15:19;100499.69;;;34.15;40.32
71145;BME280;58812;47.698;17.726;2023-06-22T09:17:44;100499.91;;;34.61;39.51
71145;BME280;58812;47.698;17.726;2023-06-22T09:20:11;100497.59;;;34.07;41.11
71145;BME280;58812;47.698;17.726;2023-06-22T09:22:37;100490.78;;;33.46;42.40
71145;BME280;58812;47.698;17.726;2023-06-22T09:25:02;100489.16;;;33.40;42.87
71145;BME280;58812;47.698;17.726;2023-06-22T09:27:28;100487.13;;;34.60;40.58
71145;BME280;58812;47.698;17.726;2023-06-22T09:29:54;100495.69;;;35.01;39.44
71145;BME280;58812;47.698;17.726;2023-06-22T09:32:19;100492.69;;;34.60;39.60
71145;BME280;58812;47.698;17.726;2023-06-22T09:34:45;100494.34;;;34.99;38.84
71145;BME280;58812;47.698;17.726;2023-06-22T09:37:10;100498.56;;;35.29;38.45
71145;BME280;58812;47.698;17.726;2023-06-22T09:39:35;100490.22;;;35.10;38.38
71145;BME280;58812;47.698;17.726;2023-06-22T09:42:02;100495.03;;;35.23;38.06
71145;BME280;58812;47.698;17.726;2023-06-22T09:44:27;100493.16;;;35.19;37.83
71145;BME280;58812;47.698;17.726;2023-06-22T09:46:53;100495.50;;;35.44;38.21
71145;BME280;58812;47.698;17.726;2023-06-22T09:49:18;100493.59;;;35.40;38.40
71145;BME280;58812;47.698;17.726;2023-06-22T09:51:44;100495.38;;;35.36;38.70
71145;BME280;58812;47.698;17.726;2023-06-22T09:54:09;100492.62;;;34.65;38.50
71145;BME280;58812;47.698;17.726;2023-06-22T09:56:34;100490.06;;;35.53;38.00
71145;BME280;58812;47.698;17.726;2023-06-22T09:59:00;100480.25;;;34.15;39.38
71145;BME280;58812;47.698;17.726;2023-06-22T10:01:25;100483.34;;;35.21;38.06
71145;BME280;58812;47.698;17.726;2023-06-22T10:03:52;100482.25;;;35.22;38.12
71145;BME280;58812;47.698;17.726;2023-06-22T10:06:21;100484.16;;;34.89;38.57
71145;BME280;58812;47.698;17.726;2023-06-22T10:08:46;100489.03;;;35.76;37.10
71145;BME280;58812;47.698;17.726;2023-06-22T10:11:13;100485.75;;;36.02;37.11
71145;BME280;58812;47.698;17.726;2023-06-22T10:13:38;100488.63;;;35.97;36.74
71145;BME280;58812;47.698;17.726;2023-06-22T10:16:04;100479.56;;;36.55;36.13
71145;BME280;58812;47.698;17.726;2023-06-22T10:18:29;100473.41;;;36.44;35.89
71145;BME280;58812;47.698;17.726;2023-06-22T10:20:56;100473.78;;;36.51;35.86
71145;BME280;58812;47.698;17.726;2023-06-22T10:23:21;100466.22;;;34.82;37.62
71145;BME280;58812;47.698;17.726;2023-06-22T10:25:47;100470.97;;;34.81;38.40
71145;BME280;58812;47.698;17.726;2023-06-22T10:28:13;100466.84;;;34.41;39.33
71145;BME280;58812;47.698;17.726;2023-06-22T10:30:42;100456.53;;;35.44;37.91
71145;BME280;58812;47.698;17.726;2023-06-22T10:33:08;100461.88;;;35.68;38.08
71145;BME280;58812;47.698;17.726;2023-06-22T10:35:35;100454.19;;;35.19;38.81
71145;BME280;58812;47.698;17.726;2023-06-22T10:38:02;100456.12;;;34.86;39.32
71145;BME280;58812;47.698;17.726;2023-06-22T10:40:28;100452.19;;;34.16;40.78
71145;BME280;58812;47.698;17.726;2023-06-22T10:42:53;100451.31;;;35.24;37.57
71145;BME280;58812;47.698;17.726;2023-06-22T10:45:19;100456.63;;;35.67;37.34
71145;BME280;58812;47.698;17.726;2023-06-22T10:47:44;100453.69;;;36.27;36.17
71145;BME280;58812;47.698;17.726;2023-06-22T10:50:10;100446.94;;;34.52;38.51
71145;BME280;58812;47.698;17.726;2023-06-22T10:52:36;100456.69;;;36.30;35.85
71145;BME280;58812;47.698;17.726;2023-06-22T10:55:01;100459.53;;;36.53;35.30
71145;BME280;58812;47.698;17.726;2023-06-22T10:57:27;100462.22;;;37.03;34.51
71145;BME280;58812;47.698;17.726;2023-06-22T10:59:52;100458.13;;;37.31;34.17
71145;BME280;58812;47.698;17.726;2023-06-22T11:02:17;100451.28;;;37.37;34.31
71145;BME280;58812;47.698;17.726;2023-06-22T11:04:43;100443.28;;;37.53;33.87
71145;BME280;58812;47.698;17.726;2023-06-22T11:07:09;100443.09;;;37.50;33.20
71145;BME280;58812;47.698;17.726;2023-06-22T11:09:34;100436.03;;;37.43;34.23
71145;BME280;58812;47.698;17.726;2023-06-22T11:12:00;100433.84;;;35.78;38.23
71145;BME280;58812;47.698;17.726;2023-06-22T11:14:25;100432.97;;;35.37;37.86
71145;BME280;58812;47.698;17.726;2023-06-22T11:16:51;100424.34;;;35.66;38.25
71145;BME280;58812;47.698;17.726;2023-06-22T11:19:17;100414.75;;;35.44;38.03
71145;BME280;58812;47.698;17.726;2023-06-22T11:21:42;100415.66;;;34.42;40.17
71145;BME280;58812;47.698;17.726;2023-06-22T11:24:07;100414.31;;;34.01;40.70
71145;BME280;58812;47.698;17.726;2023-06-22T11:26:33;100414.09;;;34.54;40.21
71145;BME280;58812;47.698;17.726;2023-06-22T11:28:59;100421.88;;;35.92;37.79
71145;BME280;58812;47.698;17.726;2023-06-22T11:31:24;100411.81;;;36.54;36.33
71145;BME280;58812;47.698;17.726;2023-06-22T11:33:50;100411.47;;;36.78;35.83
71145;BME280;58812;47.698;17.726;2023-06-22T11:36:15;100411.53;;;36.28;36.91
71145;BME280;58812;47.698;17.726;2023-06-22T11:38:44;100401.50;;;34.76;38.89
71145;BME280;58812;47.698;17.726;2023-06-22T11:41:09;100401.16;;;34.45;40.17
71145;BME280;58812;47.698;17.726;2023-06-22T11:43:35;100398.25;;;34.88;39.11
71145;BME280;58812;47.698;17.726;2023-06-22T11:46:05;100402.66;;;36.04;37.81
71145;BME280;58812;47.698;17.726;2023-06-22T11:48:30;100406.06;;;36.37;36.51
71145;BME280;58812;47.698;17.726;2023-06-22T11:50:56;100389.25;;;33.83;39.41
71145;BME280;58812;47.698;17.726;2023-06-22T11:53:24;100388.84;;;35.30;38.25
71145;BME280;58812;47.698;17.726;2023-06-22T11:55:49;100388.94;;;34.46;39.13
71145;BME280;58812;47.698;17.726;2023-06-22T11:58:16;100391.81;;;34.73;38.79
71145;BME280;58812;47.698;17.726;2023-06-22T12:00:41;100385.84;;;34.28;39.36
71145;BME280;58812;47.698;17.726;2023-06-22T12:03:07;100381.28;;;34.19;39.38
71145;BME280;58812;47.698;17.726;2023-06-22T12:05:33;100389.03;;;35.06;39.00
71145;BME280;58812;47.698;17.726;2023-06-22T12:07:58;100378.56;;;34.51;39.55
71145;BME280;58812;47.698;17.726;2023-06-22T12:10:25;100387.81;;;35.12;38.81
71145;BME280;58812;47.698;17.726;2023-06-22T12:12:50;100387.03;;;34.60;38.81
71145;BME280;58812;47.698;17.726;2023-06-22T12:15:16;100384.28;;;36.03;37.02
71145;BME280;58812;47.698;17.726;2023-06-22T12:17:41;100383.47;;;36.61;35.96
71145;BME280;58812;47.698;17.726;2023-06-22T12:20:07;100380.56;;;36.66;36.27
71145;BME280;58812;47.698;17.726;2023-06-22T12:22:33;100374.75;;;35.54;37.42
71145;BME280;58812;47.698;17.726;2023-06-22T12:24:59;100380.81;;;36.56;35.21
71145;BME280;58812;47.698;17.726;2023-06-22T12:27:24;100370.09;;;35.36;36.48
71145;BME280;58812;47.698;17.726;2023-06-22T12:29:50;100370.16;;;36.22;35.25
71145;BME280;58812;47.698;17.726;2023-06-22T12:32:16;100381.53;;;36.93;34.55
71145;BME280;58812;47.698;17.726;2023-06-22T12:34:42;100370.00;;;36.63;35.03
71145;BME280;58812;47.698;17.726;2023-06-22T12:37:08;100365.72;;;35.84;34.96
71145;BME280;58812;47.698;17.726;2023-06-22T12:39:33;100360.47;;;36.55;34.75